sensor_id;sensor_type;location;lat;lon;timestamp;temperature;humidity
16327;DHT22;34812;49.846;9.610;2022-08-21T00:00:46;14.60;99.90
16327;DHT22;34812;49.846;9.610;2022-08-21T00:01:48;14.60;99.90
16327;DHT22;34812;49.846;9.610;2022-08-21T00:02:52;14.50;99.90
16327;DHT22;34812;49.846;9.610;2022-08-21T00:03:53;14.50;99.90
16327;DHT22;34812;49.846;9.610;2022-08-21T00:04:55;14.50;99.90
16327;DHT22;34812;49.846;9.610;2022-08-21T00:05:55;14.50;99.90
16327;DHT22;34812;49.846;9.610;2022-08-21T00:06:57;14.40;99.90
16327;DHT22;34812;49.846;9.610;2022-08-21T00:07:58;14.50;99.90
16327;DHT22;34812;49.846;9.610;2022-08-21T00:09:01;14.40;99.90
16327;DHT22;34812;49.846;9.610;2022-08-21T00:10:02;14.40;99.90
16327;DHT22;34812;49.846;9.610;2022-08-21T00:11:05;14.40;99.90
16327;DHT22;34812;49.846;9.610;2022-08-21T00:12:06;14.40;99.90
16327;DHT22;34812;49.846;9.610;2022-08-21T00:13:08;14.40;99.90
16327;DHT22;34812;49.846;9.610;2022-08-21T00:14:09;14.40;99.90
16327;DHT22;34812;49.846;9.610;2022-08-21T00:15:14;14.30;99.90
16327;DHT22;34812;49.846;9.610;2022-08-21T00:16:15;14.20;99.90
16327;DHT22;34812;49.846;9.610;2022-08-21T00:17:18;14.20;99.90
16327;DHT22;34812;49.846;9.610;2022-08-21T00:18:19;14.20;99.90
16327;DHT22;34812;49.846;9.610;2022-08-21T00:19:21;14.20;99.90
16327;DHT22;34812;49.846;9.610;2022-08-21T00:20:25;14.20;99.90
16327;DHT22;34812;49.846;9.610;2022-08-21T00:21:27;14.20;99.90
16327;DHT22;34812;49.846;9.610;2022-08-21T00:22:28;14.10;99.90
16327;DHT22;34812;49.846;9.610;2022-08-21T00:23:30;14.10;99.90
16327;DHT22;34812;49.846;9.610;2022-08-21T00:24:31;14.10;99.90
16327;DHT22;34812;49.846;9.610;2022-08-21T00:25:33;14.10;99.90
16327;DHT22;34812;49.846;9.610;2022-08-21T00:26:34;14.10;99.90
16327;DHT22;34812;49.846;9.610;2022-08-21T00:27:36;14.10;99.90
16327;DHT22;34812;49.846;9.610;2022-08-21T00:28:38;14.10;99.90
16327;DHT22;34812;49.846;9.610;2022-08-21T00:29:39;14.10;99.90
16327;DHT22;34812;49.846;9.610;2022-08-21T00:30:42;14.10;99.90
16327;DHT22;34812;49.846;9.610;2022-08-21T00:31:44;14.10;99.90
16327;DHT22;34812;49.846;9.610;2022-08-21T00:32:47;14.10;99.90
16327;DHT22;34812;49.846;9.610;2022-08-21T00:33:48;14.10;99.90
16327;DHT22;34812;49.846;9.610;2022-08-21T00:34:50;14.00;99.90
16327;DHT22;34812;49.846;9.610;2022-08-21T00:35:51;14.00;99.90
16327;DHT22;34812;49.846;9.610;2022-08-21T00:36:53;13.90;99.90
16327;DHT22;34812;49.846;9.610;2022-08-21T00:37:53;13.90;99.90
16327;DHT22;34812;49.846;9.610;2022-08-21T00:38:55;13.90;99.90
16327;DHT22;34812;49.846;9.610;2022-08-21T00:39:56;13.90;99.90
16327;DHT22;34812;49.846;9.610;2022-08-21T00:41:01;13.90;99.90
16327;DHT22;34812;49.846;9.610;2022-08-21T00:42:03;13.80;99.90
16327;DHT22;34812;49.846;9.610;2022-08-21T00:43:08;13.80;99.90
16327;DHT22;34812;49.846;9.610;2022-08-21T00:44:11;13.80;99.90
16327;DHT22;34812;49.846;9.610;2022-08-21T00:45:13;13.70;99.90
16327;DHT22;34812;49.846;9.610;2022-08-21T00:46:14;13.70;99.90
16327;DHT22;34812;49.846;9.610;2022-08-21T00:47:16;13.70;99.90
16327;DHT22;34812;49.846;9.610;2022-08-21T00:48:18;13.70;99.90
16327;DHT22;34812;49.846;9.610;2022-08-21T00:49:20;13.70;99.90
16327;DHT22;34812;49.846;9.610;2022-08-21T00:50:22;13.70;99.90
16327;DHT22;34812;49.846;9.610;2022-08-21T00:51:28;13.70;99.90
16327;DHT22;34812;49.846;9.610;2022-08-21T00:52:34;13.70;99.90
16327;DHT22;34812;49.846;9.610;2022-08-21T00:53:43;13.60;99.90
16327;DHT22;34812;49.846;9.610;2022-08-21T00:54:44;13.70;99.90
16327;DHT22;34812;49.846;9.610;2022-08-21T00:55:47;13.70;99.90
16327;DHT22;34812;49.846;9.610;2022-08-21T00:56:51;13.60;99.90
16327;DHT22;34812;49.846;9.610;2022-08-21T00:57:55;13.60;99.90
16327;DHT22;34812;49.846;9.610;2022-08-21T00:58:57;13.60;99.90
16327;DHT22;34812;49.846;9.610;2022-08-21T01:00:04;13.60;99.90
16327;DHT22;34812;49.846;9.610;2022-08-21T01:01:07;13.60;99.90
16327;DHT22;34812;49.846;9.610;2022-08-21T01:02:09;13.50;99.90
16327;DHT22;34812;49.846;9.610;2022-08-21T01:03:13;13.50;99.90
16327;DHT22;34812;49.846;9.610;2022-08-21T01:04:17;13.50;99.90
16327;DHT22;34812;49.846;9.610;2022-08-21T01:05:18;13.50;99.90
16327;DHT22;34812;49.846;9.610;2022-08-21T01:06:20;13.60;99.90
16327;DHT22;34812;49.846;9.610;2022-08-21T01:07:21;13.50;99.90
16327;DHT22;34812;49.846;9.610;2022-08-21T01:08:23;13.50;99.90
16327;DHT22;34812;49.846;9.610;2022-08-21T01:09:24;13.50;99.90
16327;DHT22;34812;49.846;9.610;2022-08-21T01:10:26;13.50;99.90
16327;DHT22;34812;49.846;9.610;2022-08-21T01:11:27;13.50;99.90
16327;DHT22;34812;49.846;9.610;2022-08-21T01:12:29;13.40;99.90
16327;DHT22;34812;49.846;9.610;2022-08-21T01:13:32;13.40;99.90
16327;DHT22;34812;49.846;9.610;2022-08-21T01:14:35;13.40;99.90
16327;DHT22;34812;49.846;9.610;2022-08-21T01:15:38;13.40;99.90
16327;DHT22;34812;49.846;9.610;2022-08-21T01:16:43;13.30;99.90
16327;DHT22;34812;49.846;9.610;2022-08-21T01:17:45;13.30;99.90
16327;DHT22;34812;49.846;9.610;2022-08-21T01:18:47;13.30;99.90
16327;DHT22;34812;49.846;9.610;2022-08-21T01:19:50;13.20;99.90
16327;DHT22;34812;49.846;9.610;2022-08-21T01:21:05;13.20;99.90
16327;DHT22;34812;49.846;9.610;2022-08-21T01:22:06;13.20;99.90
16327;DHT22;34812;49.846;9.610;2022-08-21T01:23:08;13.10;99.90
16327;DHT22;34812;49.846;9.610;2022-08-21T01:24:09;13.10;99.90
16327;DHT22;34812;49.846;9.610;2022-08-21T01:25:18;13.20;99.90
16327;DHT22;34812;49.846;9.610;2022-08-21T01:26:23;13.20;99.90
16327;DHT22;34812;49.846;9.610;2022-08-21T01:27:25;13.20;99.90
16327;DHT22;34812;49.846;9.610;2022-08-21T01:28:26;13.20;99.90
16327;DHT22;34812;49.846;9.610;2022-08-21T01:29:34;13.20;99.90
16327;DHT22;34812;49.846;9.610;2022-08-21T01:30:37;13.20;99.90
16327;DHT22;34812;49.846;9.610;2022-08-21T01:31:39;13.20;99.90
16327;DHT22;34812;49.846;9.610;2022-08-21T01:32:41;13.20;99.90
16327;DHT22;34812;49.846;9.610;2022-08-21T01:33:43;13.10;99.90
16327;DHT22;34812;49.846;9.610;2022-08-21T01:34:45;13.10;99.90
16327;DHT22;34812;49.846;9.610;2022-08-21T01:35:48;13.10;99.90
16327;DHT22;34812;49.846;9.610;2022-08-21T01:36:50;13.10;99.90
16327;DHT22;34812;49.846;9.610;2022-08-21T01:37:52;13.10;99.90
16327;DHT22;34812;49.846;9.610;2022-08-21T01:38:53;13.10;99.90
16327;DHT22;34812;49.846;9.610;2022-08-21T01:39:55;13.10;99.90
16327;DHT22;34812;49.846;9.610;2022-08-21T01:40:56;13.00;99.90
16327;DHT22;34812;49.846;9.610;2022-08-21T01:41:57;13.00;99.90
16327;DHT22;34812;49.846;9.610;2022-08-21T01:42:58;13.00;99.90
16327;DHT22;34812;49.846;9.610;2022-08-21T01:44:00;13.00;99.90
16327;DHT22;34812;49.846;9.610;2022-08-21T01:45:01;12.90;99.90
16327;DHT22;34812;49.846;9.610;2022-08-21T01:46:03;12.90;99.90
16327;DHT22;34812;49.846;9.610;2022-08-21T01:47:07;12.90;99.90
16327;DHT22;34812;49.846;9.610;2022-08-21T01:48:09;12.90;99.90
16327;DHT22;34812;49.846;9.610;2022-08-21T01:49:10;12.90;99.90
16327;DHT22;34812;49.846;9.610;2022-08-21T01:50:16;12.80;99.90
16327;DHT22;34812;49.846;9.610;2022-08-21T01:51:17;12.80;99.90
16327;DHT22;34812;49.846;9.610;2022-08-21T01:52:21;12.80;99.90
16327;DHT22;34812;49.846;9.610;2022-08-21T01:53:21;12.70;99.90
16327;DHT22;34812;49.846;9.610;2022-08-21T01:54:23;12.70;99.90
16327;DHT22;34812;49.846;9.610;2022-08-21T01:55:24;12.80;99.90
16327;DHT22;34812;49.846;9.610;2022-08-21T01:56:26;12.70;99.90
16327;DHT22;34812;49.846;9.610;2022-08-21T01:57:28;12.70;99.90
16327;DHT22;34812;49.846;9.610;2022-08-21T01:58:29;12.70;99.90
16327;DHT22;34812;49.846;9.610;2022-08-21T01:59:31;12.60;99.90
16327;DHT22;34812;49.846;9.610;2022-08-21T02:00:33;12.60;99.90
16327;DHT22;34812;49.846;9.610;2022-08-21T02:01:34;12.70;99.90
16327;DHT22;34812;49.846;9.610;2022-08-21T02:02:36;12.60;99.90
16327;DHT22;34812;49.846;9.610;2022-08-21T02:03:37;12.60;99.90
16327;DHT22;34812;49.846;9.610;2022-08-21T02:04:39;12.60;99.90
16327;DHT22;34812;49.846;9.610;2022-08-21T02:05:40;12.50;99.90
16327;DHT22;34812;49.846;9.610;2022-08-21T02:06:42;12.60;99.90
16327;DHT22;34812;49.846;9.610;2022-08-21T02:07:47;12.50;99.90
16327;DHT22;34812;49.846;9.610;2022-08-21T02:08:49;12.50;99.90
16327;DHT22;34812;49.846;9.610;2022-08-21T02:09:50;12.50;99.90
16327;DHT22;34812;49.846;9.610;2022-08-21T02:10:52;12.50;99.90
16327;DHT22;34812;49.846;9.610;2022-08-21T02:11:53;12.50;99.90
16327;DHT22;34812;49.846;9.610;2022-08-21T02:12:55;12.50;99.90
16327;DHT22;34812;49.846;9.610;2022-08-21T02:13:56;12.60;99.90
16327;DHT22;34812;49.846;9.610;2022-08-21T02:14:58;12.60;99.90
16327;DHT22;34812;49.846;9.610;2022-08-21T02:15:59;12.60;99.90
16327;DHT22;34812;49.846;9.610;2022-08-21T02:17:01;12.60;99.90
16327;DHT22;34812;49.846;9.610;2022-08-21T02:18:05;12.60;99.90
16327;DHT22;34812;49.846;9.610;2022-08-21T02:19:07;12.60;99.90
16327;DHT22;34812;49.846;9.610;2022-08-21T02:20:09;12.70;99.90
16327;DHT22;34812;49.846;9.610;2022-08-21T02:21:11;12.70;99.90
16327;DHT22;34812;49.846;9.610;2022-08-21T02:22:12;12.70;99.90
16327;DHT22;34812;49.846;9.610;2022-08-21T02:23:15;12.70;99.90
16327;DHT22;34812;49.846;9.610;2022-08-21T02:24:16;12.70;99.90
16327;DHT22;34812;49.846;9.610;2022-08-21T02:25:20;12.70;99.90
16327;DHT22;34812;49.846;9.610;2022-08-21T02:26:21;12.70;99.90
16327;DHT22;34812;49.846;9.610;2022-08-21T02:27:23;12.60;99.90
16327;DHT22;34812;49.846;9.610;2022-08-21T02:28:25;12.70;99.90
16327;DHT22;34812;49.846;9.610;2022-08-21T02:29:27;12.60;99.90
16327;DHT22;34812;49.846;9.610;2022-08-21T02:30:30;12.60;99.90
16327;DHT22;34812;49.846;9.610;2022-08-21T02:31:33;12.50;99.90
16327;DHT22;34812;49.846;9.610;2022-08-21T02:32:34;12.50;99.90
16327;DHT22;34812;49.846;9.610;2022-08-21T02:33:36;12.40;99.90
16327;DHT22;34812;49.846;9.610;2022-08-21T02:34:36;12.40;99.90
16327;DHT22;34812;49.846;9.610;2022-08-21T02:35:39;12.30;99.90
16327;DHT22;34812;49.846;9.610;2022-08-21T02:36:42;12.40;99.90
16327;DHT22;34812;49.846;9.610;2022-08-21T02:37:46;12.30;99.90
16327;DHT22;34812;49.846;9.610;2022-08-21T02:38:48;12.30;99.90
16327;DHT22;34812;49.846;9.610;2022-08-21T02:39:50;12.20;99.90
16327;DHT22;34812;49.846;9.610;2022-08-21T02:40:52;12.20;99.90
16327;DHT22;34812;49.846;9.610;2022-08-21T02:41:54;12.10;99.90
16327;DHT22;34812;49.846;9.610;2022-08-21T02:42:55;12.10;99.90
16327;DHT22;34812;49.846;9.610;2022-08-21T02:43:57;12.10;99.90
16327;DHT22;34812;49.846;9.610;2022-08-21T02:44:57;12.00;99.90
16327;DHT22;34812;49.846;9.610;2022-08-21T02:45:59;12.00;99.90
16327;DHT22;34812;49.846;9.610;2022-08-21T02:47:00;12.00;99.90
16327;DHT22;34812;49.846;9.610;2022-08-21T02:48:04;12.00;99.90
16327;DHT22;34812;49.846;9.610;2022-08-21T02:49:05;12.10;99.90
16327;DHT22;34812;49.846;9.610;2022-08-21T02:50:07;12.10;99.90
16327;DHT22;34812;49.846;9.610;2022-08-21T02:51:11;12.20;99.90
16327;DHT22;34812;49.846;9.610;2022-08-21T02:52:13;12.20;99.90
16327;DHT22;34812;49.846;9.610;2022-08-21T02:53:16;12.20;99.90
16327;DHT22;34812;49.846;9.610;2022-08-21T02:54:19;12.20;99.90
16327;DHT22;34812;49.846;9.610;2022-08-21T02:55:20;12.20;99.90
16327;DHT22;34812;49.846;9.610;2022-08-21T02:56:22;12.20;99.90
16327;DHT22;34812;49.846;9.610;2022-08-21T02:57:22;12.20;99.90
16327;DHT22;34812;49.846;9.610;2022-08-21T02:58:27;12.20;99.90
16327;DHT22;34812;49.846;9.610;2022-08-21T02:59:28;12.20;99.90
16327;DHT22;34812;49.846;9.610;2022-08-21T03:00:31;12.20;99.90
16327;DHT22;34812;49.846;9.610;2022-08-21T03:01:32;12.20;99.90
16327;DHT22;34812;49.846;9.610;2022-08-21T03:02:33;12.10;99.90
16327;DHT22;34812;49.846;9.610;2022-08-21T03:03:35;12.10;99.90
16327;DHT22;34812;49.846;9.610;2022-08-21T03:04:37;12.10;99.90
16327;DHT22;34812;49.846;9.610;2022-08-21T03:05:38;12.10;99.90
16327;DHT22;34812;49.846;9.610;2022-08-21T03:06:40;12.00;99.90
16327;DHT22;34812;49.846;9.610;2022-08-21T03:07:41;12.10;99.90
16327;DHT22;34812;49.846;9.610;2022-08-21T03:08:42;12.00;99.90
16327;DHT22;34812;49.846;9.610;2022-08-21T03:09:46;12.00;99.90
16327;DHT22;34812;49.846;9.610;2022-08-21T03:10:50;12.10;99.90
16327;DHT22;34812;49.846;9.610;2022-08-21T03:11:51;12.10;99.90
16327;DHT22;34812;49.846;9.610;2022-08-21T03:12:53;12.10;99.90
16327;DHT22;34812;49.846;9.610;2022-08-21T03:13:54;12.10;99.90
16327;DHT22;34812;49.846;9.610;2022-08-21T03:14:56;12.00;99.90
16327;DHT22;34812;49.846;9.610;2022-08-21T03:15:58;12.00;99.90
16327;DHT22;34812;49.846;9.610;2022-08-21T03:17:00;11.90;99.90
16327;DHT22;34812;49.846;9.610;2022-08-21T03:18:01;11.90;99.90
16327;DHT22;34812;49.846;9.610;2022-08-21T03:19:02;11.80;99.90
16327;DHT22;34812;49.846;9.610;2022-08-21T03:20:04;11.80;99.90
16327;DHT22;34812;49.846;9.610;2022-08-21T03:21:06;11.80;99.90
16327;DHT22;34812;49.846;9.610;2022-08-21T03:22:07;11.80;99.90
16327;DHT22;34812;49.846;9.610;2022-08-21T03:23:09;11.80;99.90
16327;DHT22;34812;49.846;9.610;2022-08-21T03:24:10;11.90;99.90
16327;DHT22;34812;49.846;9.610;2022-08-21T03:25:13;11.80;99.90
16327;DHT22;34812;49.846;9.610;2022-08-21T03:26:14;11.80;99.90
16327;DHT22;34812;49.846;9.610;2022-08-21T03:27:15;11.80;99.90
16327;DHT22;34812;49.846;9.610;2022-08-21T03:28:19;11.80;99.90
16327;DHT22;34812;49.846;9.610;2022-08-21T03:29:21;11.80;99.90
16327;DHT22;34812;49.846;9.610;2022-08-21T03:30:22;11.80;99.90
16327;DHT22;34812;49.846;9.610;2022-08-21T03:31:24;11.80;99.90
16327;DHT22;34812;49.846;9.610;2022-08-21T03:32:27;11.80;99.90
16327;DHT22;34812;49.846;9.610;2022-08-21T03:33:29;11.70;99.90
16327;DHT22;34812;49.846;9.610;2022-08-21T03:34:31;11.70;99.90
16327;DHT22;34812;49.846;9.610;2022-08-21T03:35:31;11.70;99.90
16327;DHT22;34812;49.846;9.610;2022-08-21T03:36:33;11.60;99.90
16327;DHT22;34812;49.846;9.610;2022-08-21T03:37:35;11.60;99.90
16327;DHT22;34812;49.846;9.610;2022-08-21T03:38:37;11.50;99.90
16327;DHT22;34812;49.846;9.610;2022-08-21T03:39:39;11.50;99.90
16327;DHT22;34812;49.846;9.610;2022-08-21T03:40:42;11.60;99.90
16327;DHT22;34812;49.846;9.610;2022-08-21T03:41:43;11.60;99.90
16327;DHT22;34812;49.846;9.610;2022-08-21T03:42:45;11.60;99.90
16327;DHT22;34812;49.846;9.610;2022-08-21T03:43:47;11.60;99.90
16327;DHT22;34812;49.846;9.610;2022-08-21T03:44:49;11.60;99.90
16327;DHT22;34812;49.846;9.610;2022-08-21T03:45:50;11.60;99.90
16327;DHT22;34812;49.846;9.610;2022-08-21T03:46:52;11.50;99.90
16327;DHT22;34812;49.846;9.610;2022-08-21T03:47:54;11.50;99.90
16327;DHT22;34812;49.846;9.610;2022-08-21T03:48:57;11.50;99.90
16327;DHT22;34812;49.846;9.610;2022-08-21T03:49:58;11.50;99.90
16327;DHT22;34812;49.846;9.610;2022-08-21T03:51:00;11.50;99.90
16327;DHT22;34812;49.846;9.610;2022-08-21T03:52:02;11.50;99.90
16327;DHT22;34812;49.846;9.610;2022-08-21T03:53:04;11.50;99.90
16327;DHT22;34812;49.846;9.610;2022-08-21T03:54:05;11.60;99.90
16327;DHT22;34812;49.846;9.610;2022-08-21T03:55:07;11.60;99.90
16327;DHT22;34812;49.846;9.610;2022-08-21T03:56:09;11.60;99.90
16327;DHT22;34812;49.846;9.610;2022-08-21T03:57:10;11.50;99.90
16327;DHT22;34812;49.846;9.610;2022-08-21T03:58:12;11.50;99.90
16327;DHT22;34812;49.846;9.610;2022-08-21T03:59:14;11.50;99.90
16327;DHT22;34812;49.846;9.610;2022-08-21T04:00:18;11.50;99.90
16327;DHT22;34812;49.846;9.610;2022-08-21T04:01:19;11.50;99.90
16327;DHT22;34812;49.846;9.610;2022-08-21T04:02:21;11.50;99.90
16327;DHT22;34812;49.846;9.610;2022-08-21T04:03:23;11.60;99.90
16327;DHT22;34812;49.846;9.610;2022-08-21T04:04:25;11.60;99.90
16327;DHT22;34812;49.846;9.610;2022-08-21T04:05:26;11.60;99.90
16327;DHT22;34812;49.846;9.610;2022-08-21T04:06:28;11.70;99.90
16327;DHT22;34812;49.846;9.610;2022-08-21T04:07:30;11.70;99.90
16327;DHT22;34812;49.846;9.610;2022-08-21T04:08:30;11.70;99.90
16327;DHT22;34812;49.846;9.610;2022-08-21T04:09:32;11.60;99.90
16327;DHT22;34812;49.846;9.610;2022-08-21T04:10:35;11.60;99.90
16327;DHT22;34812;49.846;9.610;2022-08-21T04:11:38;11.60;99.90
16327;DHT22;34812;49.846;9.610;2022-08-21T04:12:38;11.50;99.90
16327;DHT22;34812;49.846;9.610;2022-08-21T04:13:40;11.50;99.90
16327;DHT22;34812;49.846;9.610;2022-08-21T04:14:41;11.50;99.90
16327;DHT22;34812;49.846;9.610;2022-08-21T04:15:43;11.50;99.90
16327;DHT22;34812;49.846;9.610;2022-08-21T04:16:44;11.50;99.90
16327;DHT22;34812;49.846;9.610;2022-08-21T04:17:46;11.40;99.90
16327;DHT22;34812;49.846;9.610;2022-08-21T04:18:47;11.40;99.90
16327;DHT22;34812;49.846;9.610;2022-08-21T04:19:48;11.40;99.90
16327;DHT22;34812;49.846;9.610;2022-08-21T04:20:51;11.40;99.90
16327;DHT22;34812;49.846;9.610;2022-08-21T04:21:54;11.40;99.90
16327;DHT22;34812;49.846;9.610;2022-08-21T04:22:55;11.30;99.90
16327;DHT22;34812;49.846;9.610;2022-08-21T04:23:57;11.40;99.90
16327;DHT22;34812;49.846;9.610;2022-08-21T04:24:57;11.40;99.90
16327;DHT22;34812;49.846;9.610;2022-08-21T04:25:59;11.30;99.90
16327;DHT22;34812;49.846;9.610;2022-08-21T04:27:01;11.30;99.90
16327;DHT22;34812;49.846;9.610;2022-08-21T04:28:03;11.30;99.90
16327;DHT22;34812;49.846;9.610;2022-08-21T04:29:05;11.30;99.90
16327;DHT22;34812;49.846;9.610;2022-08-21T04:30:08;11.30;99.90
16327;DHT22;34812;49.846;9.610;2022-08-21T04:31:09;11.30;99.90
16327;DHT22;34812;49.846;9.610;2022-08-21T04:32:11;11.30;99.90
16327;DHT22;34812;49.846;9.610;2022-08-21T04:33:12;11.30;99.90
16327;DHT22;34812;49.846;9.610;2022-08-21T04:34:14;11.30;99.90
16327;DHT22;34812;49.846;9.610;2022-08-21T04:35:16;11.30;99.90
16327;DHT22;34812;49.846;9.610;2022-08-21T04:36:18;11.30;99.90
16327;DHT22;34812;49.846;9.610;2022-08-21T04:37:19;11.30;99.90
16327;DHT22;34812;49.846;9.610;2022-08-21T04:38:21;11.30;99.90
16327;DHT22;34812;49.846;9.610;2022-08-21T04:39:22;11.30;99.90
16327;DHT22;34812;49.846;9.610;2022-08-21T04:40:25;11.30;99.90
16327;DHT22;34812;49.846;9.610;2022-08-21T04:41:26;11.30;99.90
16327;DHT22;34812;49.846;9.610;2022-08-21T04:42:30;11.30;99.90
16327;DHT22;34812;49.846;9.610;2022-08-21T04:43:31;11.30;99.90
16327;DHT22;34812;49.846;9.610;2022-08-21T04:44:32;11.30;99.90
16327;DHT22;34812;49.846;9.610;2022-08-21T04:45:35;11.40;99.90
16327;DHT22;34812;49.846;9.610;2022-08-21T04:46:37;11.40;99.90
16327;DHT22;34812;49.846;9.610;2022-08-21T04:47:38;11.40;99.90
16327;DHT22;34812;49.846;9.610;2022-08-21T04:48:39;11.40;99.90
16327;DHT22;34812;49.846;9.610;2022-08-21T04:49:40;11.50;99.90
16327;DHT22;34812;49.846;9.610;2022-08-21T04:50:47;11.50;99.90
16327;DHT22;34812;49.846;9.610;2022-08-21T04:51:49;11.60;99.90
16327;DHT22;34812;49.846;9.610;2022-08-21T04:52:51;11.60;99.90
16327;DHT22;34812;49.846;9.610;2022-08-21T04:53:55;11.70;99.90
16327;DHT22;34812;49.846;9.610;2022-08-21T04:54:57;11.70;99.90
16327;DHT22;34812;49.846;9.610;2022-08-21T04:56:02;11.80;99.90
16327;DHT22;34812;49.846;9.610;2022-08-21T04:57:06;11.80;99.90
16327;DHT22;34812;49.846;9.610;2022-08-21T04:58:16;11.70;99.90
16327;DHT22;34812;49.846;9.610;2022-08-21T04:59:20;11.70;99.90
16327;DHT22;34812;49.846;9.610;2022-08-21T05:00:23;11.70;99.90
16327;DHT22;34812;49.846;9.610;2022-08-21T05:01:27;11.60;99.90
16327;DHT22;34812;49.846;9.610;2022-08-21T05:02:30;11.60;99.90
16327;DHT22;34812;49.846;9.610;2022-08-21T05:03:34;11.60;99.90
16327;DHT22;34812;49.846;9.610;2022-08-21T05:04:41;11.60;99.90
16327;DHT22;34812;49.846;9.610;2022-08-21T05:05:43;11.70;99.90
16327;DHT22;34812;49.846;9.610;2022-08-21T05:06:46;11.70;99.90
16327;DHT22;34812;49.846;9.610;2022-08-21T05:07:48;11.70;99.90
16327;DHT22;34812;49.846;9.610;2022-08-21T05:08:52;11.80;99.90
16327;DHT22;34812;49.846;9.610;2022-08-21T05:09:54;11.80;99.90
16327;DHT22;34812;49.846;9.610;2022-08-21T05:10:56;11.90;99.90
16327;DHT22;34812;49.846;9.610;2022-08-21T05:11:57;11.90;99.90
16327;DHT22;34812;49.846;9.610;2022-08-21T05:12:59;12.00;99.90
16327;DHT22;34812;49.846;9.610;2022-08-21T05:14:02;12.10;99.90
16327;DHT22;34812;49.846;9.610;2022-08-21T05:15:05;12.10;99.90
16327;DHT22;34812;49.846;9.610;2022-08-21T05:16:06;12.20;99.90
16327;DHT22;34812;49.846;9.610;2022-08-21T05:17:08;12.20;99.90
16327;DHT22;34812;49.846;9.610;2022-08-21T05:18:09;12.30;99.90
16327;DHT22;34812;49.846;9.610;2022-08-21T05:19:11;12.30;99.90
16327;DHT22;34812;49.846;9.610;2022-08-21T05:20:13;12.40;99.90
16327;DHT22;34812;49.846;9.610;2022-08-21T05:21:15;12.50;99.90
16327;DHT22;34812;49.846;9.610;2022-08-21T05:22:19;12.50;99.90
16327;DHT22;34812;49.846;9.610;2022-08-21T05:23:21;12.60;99.90
16327;DHT22;34812;49.846;9.610;2022-08-21T05:24:22;12.60;99.90
16327;DHT22;34812;49.846;9.610;2022-08-21T05:25:23;12.70;99.90
16327;DHT22;34812;49.846;9.610;2022-08-21T05:26:25;12.70;99.90
16327;DHT22;34812;49.846;9.610;2022-08-21T05:27:26;12.70;99.90
16327;DHT22;34812;49.846;9.610;2022-08-21T05:28:30;12.70;99.90
16327;DHT22;34812;49.846;9.610;2022-08-21T05:29:33;12.70;99.90
16327;DHT22;34812;49.846;9.610;2022-08-21T05:30:35;12.70;99.90
16327;DHT22;34812;49.846;9.610;2022-08-21T05:31:37;12.80;99.90
16327;DHT22;34812;49.846;9.610;2022-08-21T05:32:38;12.80;99.90
16327;DHT22;34812;49.846;9.610;2022-08-21T05:33:40;12.80;99.90
16327;DHT22;34812;49.846;9.610;2022-08-21T05:34:41;12.80;99.90
16327;DHT22;34812;49.846;9.610;2022-08-21T05:35:42;12.80;99.90
16327;DHT22;34812;49.846;9.610;2022-08-21T05:36:43;12.80;99.90
16327;DHT22;34812;49.846;9.610;2022-08-21T05:37:45;12.90;99.90
16327;DHT22;34812;49.846;9.610;2022-08-21T05:38:47;12.80;99.90
16327;DHT22;34812;49.846;9.610;2022-08-21T05:39:47;12.80;99.90
16327;DHT22;34812;49.846;9.610;2022-08-21T05:40:49;12.80;99.90
16327;DHT22;34812;49.846;9.610;2022-08-21T05:41:50;12.90;99.90
16327;DHT22;34812;49.846;9.610;2022-08-21T05:42:53;12.90;99.90
16327;DHT22;34812;49.846;9.610;2022-08-21T05:43:54;12.90;99.90
16327;DHT22;34812;49.846;9.610;2022-08-21T05:44:57;12.90;99.90
16327;DHT22;34812;49.846;9.610;2022-08-21T05:45:58;13.00;99.90
16327;DHT22;34812;49.846;9.610;2022-08-21T05:47:03;13.00;99.90
16327;DHT22;34812;49.846;9.610;2022-08-21T05:48:07;13.00;99.90
16327;DHT22;34812;49.846;9.610;2022-08-21T05:49:10;13.10;99.90
16327;DHT22;34812;49.846;9.610;2022-08-21T05:50:11;13.10;99.90
16327;DHT22;34812;49.846;9.610;2022-08-21T05:51:14;13.20;99.90
16327;DHT22;34812;49.846;9.610;2022-08-21T05:52:18;13.20;99.90
16327;DHT22;34812;49.846;9.610;2022-08-21T05:53:22;13.20;99.90
16327;DHT22;34812;49.846;9.610;2022-08-21T05:54:23;13.20;99.90
16327;DHT22;34812;49.846;9.610;2022-08-21T05:55:25;13.20;99.90
16327;DHT22;34812;49.846;9.610;2022-08-21T05:56:25;13.20;99.90
16327;DHT22;34812;49.846;9.610;2022-08-21T05:57:27;13.20;99.90
16327;DHT22;34812;49.846;9.610;2022-08-21T05:58:28;13.20;99.90
16327;DHT22;34812;49.846;9.610;2022-08-21T05:59:29;13.20;99.90
16327;DHT22;34812;49.846;9.610;2022-08-21T06:00:31;13.20;99.90
16327;DHT22;34812;49.846;9.610;2022-08-21T06:01:34;13.20;99.90
16327;DHT22;34812;49.846;9.610;2022-08-21T06:02:36;13.20;99.90
16327;DHT22;34812;49.846;9.610;2022-08-21T06:03:39;13.10;99.90
16327;DHT22;34812;49.846;9.610;2022-08-21T06:04:41;13.10;99.90
16327;DHT22;34812;49.846;9.610;2022-08-21T06:05:42;13.20;99.90
16327;DHT22;34812;49.846;9.610;2022-08-21T06:06:43;13.20;99.90
16327;DHT22;34812;49.846;9.610;2022-08-21T06:07:44;13.20;99.90
16327;DHT22;34812;49.846;9.610;2022-08-21T06:08:46;13.20;99.90
16327;DHT22;34812;49.846;9.610;2022-08-21T06:09:46;13.20;99.90
16327;DHT22;34812;49.846;9.610;2022-08-21T06:10:50;13.30;99.90
16327;DHT22;34812;49.846;9.610;2022-08-21T06:11:51;13.30;99.90
16327;DHT22;34812;49.846;9.610;2022-08-21T06:12:54;13.30;99.90
16327;DHT22;34812;49.846;9.610;2022-08-21T06:13:55;13.30;99.90
16327;DHT22;34812;49.846;9.610;2022-08-21T06:14:57;13.30;99.90
16327;DHT22;34812;49.846;9.610;2022-08-21T06:16:04;13.30;99.90
16327;DHT22;34812;49.846;9.610;2022-08-21T06:17:08;13.30;99.90
16327;DHT22;34812;49.846;9.610;2022-08-21T06:18:09;13.30;99.90
16327;DHT22;34812;49.846;9.610;2022-08-21T06:19:11;13.30;99.90
16327;DHT22;34812;49.846;9.610;2022-08-21T06:20:12;13.40;99.90
16327;DHT22;34812;49.846;9.610;2022-08-21T06:21:14;13.40;99.90
16327;DHT22;34812;49.846;9.610;2022-08-21T06:22:15;13.40;99.90
16327;DHT22;34812;49.846;9.610;2022-08-21T06:23:17;13.50;99.90
16327;DHT22;34812;49.846;9.610;2022-08-21T06:24:17;13.50;99.90
16327;DHT22;34812;49.846;9.610;2022-08-21T06:25:19;13.50;99.90
16327;DHT22;34812;49.846;9.610;2022-08-21T06:26:20;13.50;99.90
16327;DHT22;34812;49.846;9.610;2022-08-21T06:27:22;13.60;99.90
16327;DHT22;34812;49.846;9.610;2022-08-21T06:28:23;13.60;99.90
16327;DHT22;34812;49.846;9.610;2022-08-21T06:29:25;13.60;99.90
16327;DHT22;34812;49.846;9.610;2022-08-21T06:30:25;13.70;99.90
16327;DHT22;34812;49.846;9.610;2022-08-21T06:31:29;13.70;99.90
16327;DHT22;34812;49.846;9.610;2022-08-21T06:32:31;13.70;99.90